createdAt,value
2018-04-24T00:00:33.800Z,5.70
2018-04-24T00:01:33.760Z,4.70
2018-04-24T00:02:33.711Z,6.60
2018-04-24T00:03:33.698Z,5.50
2018-04-24T00:04:33.637Z,6.30
2018-04-24T00:05:33.598Z,6.20
2018-04-24T00:06:33.561Z,4.90
2018-04-24T00:07:33.518Z,6.30
2018-04-24T00:08:33.500Z,5.10
2018-04-24T00:09:33.442Z,7.30
2018-04-24T00:10:33.404Z,4.70
2018-04-24T00:11:33.362Z,5.20
2018-04-24T00:12:33.317Z,5.90
2018-04-24T00:13:33.308Z,8.10
2018-04-24T00:14:33.235Z,3.30
2018-04-24T00:15:33.204Z,6.50
2018-04-24T00:16:33.157Z,5.30
2018-04-24T00:17:33.121Z,6.60
2018-04-24T00:18:33.086Z,5.70
2018-04-24T00:19:33.059Z,5.00
2018-04-24T00:20:32.999Z,6.50
2018-04-24T00:21:32.975Z,5.90
2018-04-24T00:22:32.921Z,4.40
2018-04-24T00:23:32.885Z,5.40
2018-04-24T00:24:32.864Z,4.80
2018-04-24T00:25:32.803Z,5.80
2018-04-24T00:26:32.762Z,5.40
2018-04-24T00:27:32.729Z,5.30
2018-04-24T00:28:32.692Z,5.10
2018-04-24T00:29:32.665Z,4.60
2018-04-24T00:30:32.608Z,5.50
2018-04-24T00:31:32.565Z,6.70
2018-04-24T00:32:32.539Z,4.90
2018-04-24T00:33:32.490Z,6.60
2018-04-24T00:34:32.481Z,6.00
2018-04-24T00:35:32.470Z,4.60
2018-04-24T00:36:32.366Z,5.00
2018-04-24T00:37:32.320Z,5.50
2018-04-24T00:38:32.296Z,7.90
2018-04-24T00:39:32.274Z,5.10
2018-04-24T00:40:32.208Z,5.60
2018-04-24T00:41:32.170Z,6.70
2018-04-24T00:42:32.130Z,7.00
2018-04-24T00:43:32.107Z,4.00
2018-04-24T00:44:32.044Z,5.70
2018-04-24T00:45:32.045Z,5.90
2018-04-24T00:46:31.964Z,6.00
2018-04-24T00:47:31.933Z,5.70
2018-04-24T00:48:31.893Z,5.10
2018-04-24T00:49:31.879Z,4.90
2018-04-24T00:50:31.815Z,3.80
2018-04-24T00:51:31.764Z,6.70
2018-04-24T00:52:31.729Z,7.30
2018-04-24T00:53:31.687Z,4.80
2018-04-24T00:54:31.650Z,5.30
2018-04-24T00:55:31.636Z,5.20
2018-04-24T00:56:31.565Z,4.80
2018-04-24T00:57:31.527Z,7.80
2018-04-24T00:58:31.500Z,4.60
2018-04-24T00:59:31.479Z,6.20
2018-04-24T01:00:31.418Z,5.60
2018-04-24T01:01:31.368Z,6.60
2018-04-24T01:02:31.338Z,6.80
2018-04-24T01:03:31.303Z,7.30
2018-04-24T01:04:31.258Z,6.20
2018-04-24T01:05:31.237Z,5.00
2018-04-24T01:06:31.170Z,4.70
2018-04-24T01:07:31.132Z,6.10
2018-04-24T01:08:31.098Z,5.10
2018-04-24T01:09:31.049Z,3.80
2018-04-24T01:10:31.042Z,5.30
2018-04-24T01:11:30.978Z,9.30
2018-04-24T01:12:30.929Z,4.30
2018-04-24T01:13:30.890Z,4.70
2018-04-24T01:14:30.858Z,4.60
2018-04-24T01:15:30.848Z,4.50
2018-04-24T01:16:30.772Z,5.90
2018-04-24T01:17:30.730Z,5.30
2018-04-24T01:18:30.695Z,5.10
2018-04-24T01:19:30.657Z,5.80
2018-04-24T01:20:30.648Z,6.20
2018-04-24T01:21:30.580Z,5.70
2018-04-24T01:22:30.535Z,4.60
2018-04-24T01:23:30.495Z,3.40
2018-04-24T01:24:30.447Z,4.50
2018-04-24T01:25:30.417Z,5.50
2018-04-24T01:26:30.404Z,4.90
2018-04-24T01:27:30.344Z,6.50
2018-04-24T01:28:30.300Z,5.50
2018-04-24T01:29:30.256Z,4.40
2018-04-24T01:30:30.221Z,5.90
2018-04-24T01:31:30.197Z,8.10
2018-04-24T01:32:30.138Z,4.10
2018-04-24T01:33:30.102Z,5.70
2018-04-24T01:34:30.049Z,6.40
2018-04-24T01:35:30.023Z,4.80
2018-04-24T01:36:29.996Z,5.40
2018-04-24T01:37:29.938Z,7.60
2018-04-24T01:38:29.894Z,6.60
2018-04-24T01:39:29.855Z,5.20
2018-04-24T01:40:29.820Z,6.30
2018-04-24T01:41:29.797Z,5.70
2018-04-24T01:42:29.734Z,8.80
2018-04-24T01:43:29.699Z,6.00
2018-04-24T01:44:29.654Z,5.60
2018-04-24T01:45:29.610Z,9.20
2018-04-24T01:46:29.611Z,5.10
2018-04-24T01:47:29.536Z,5.70
2018-04-24T01:48:29.493Z,6.40
2018-04-24T01:49:29.452Z,5.70
2018-04-24T01:50:29.413Z,5.30
2018-04-24T01:51:29.409Z,3.70
2018-04-24T01:52:29.337Z,5.10
2018-04-24T01:53:29.296Z,4.30
2018-04-24T01:54:29.252Z,5.50
2018-04-24T01:55:29.212Z,4.20
2018-04-24T01:56:29.166Z,6.90
2018-04-24T01:57:29.156Z,5.70
2018-04-24T01:58:29.090Z,5.80
2018-04-24T01:59:29.052Z,6.50
2018-04-24T02:00:29.015Z,6.20
2018-04-24T02:01:28.988Z,6.30
2018-04-24T02:02:28.952Z,4.80
2018-04-24T02:03:28.896Z,6.30
2018-04-24T02:04:28.850Z,5.00
2018-04-24T02:05:28.810Z,5.60
2018-04-24T02:06:28.766Z,7.20
2018-04-24T02:07:28.756Z,5.80
2018-04-24T02:08:28.691Z,5.90
2018-04-24T02:09:28.649Z,7.30
2018-04-24T02:10:28.616Z,5.90
2018-04-24T02:11:28.569Z,6.20
2018-04-24T02:12:28.558Z,3.90
2018-04-24T02:13:28.490Z,5.30
2018-04-24T02:14:28.448Z,6.20
2018-04-24T02:15:28.412Z,5.60
2018-04-24T02:16:28.371Z,6.20
2018-04-24T02:17:28.321Z,6.40
2018-04-24T02:18:28.309Z,5.30
2018-04-24T02:19:28.244Z,6.20
2018-04-24T02:20:28.202Z,6.60
2018-04-24T02:21:28.163Z,5.60
2018-04-24T02:22:28.122Z,5.30
2018-04-24T02:23:28.102Z,7.10
2018-04-24T02:24:28.051Z,5.70
2018-04-24T02:25:28.013Z,5.70
2018-04-24T02:26:27.965Z,5.60
2018-04-24T02:27:27.920Z,5.90
2018-04-24T02:28:27.909Z,6.20
2018-04-24T02:29:27.837Z,5.30
2018-04-24T02:30:27.802Z,7.20
2018-04-24T02:31:27.764Z,5.00
2018-04-24T02:32:27.727Z,6.00
2018-04-24T02:33:27.715Z,5.00
2018-04-24T02:34:27.646Z,6.70
2018-04-24T02:35:27.600Z,6.60
2018-04-24T02:36:27.557Z,6.10
2018-04-24T02:37:27.525Z,6.60
2018-04-24T02:38:27.504Z,5.80
2018-04-24T02:39:27.444Z,6.80
2018-04-24T02:40:27.480Z,6.10
2018-04-24T02:41:27.394Z,5.80
2018-04-24T02:42:27.323Z,6.20
2018-04-24T02:43:27.277Z,5.90
2018-04-24T02:44:27.260Z,5.90
2018-04-24T02:45:27.202Z,7.40
2018-04-24T02:46:27.151Z,5.50
2018-04-24T02:47:27.127Z,9.00
2018-04-24T02:48:27.077Z,8.40
2018-04-24T02:49:27.057Z,6.60
2018-04-24T02:50:26.989Z,8.10
2018-04-24T02:51:26.951Z,6.30
2018-04-24T02:52:26.912Z,6.50
2018-04-24T02:53:26.872Z,6.60
2018-04-24T02:54:26.861Z,6.70
2018-04-24T02:55:26.787Z,7.20
2018-04-24T02:56:26.756Z,8.20
2018-04-24T02:57:26.707Z,8.00
2018-04-24T02:58:26.665Z,7.60
2018-04-24T02:59:26.657Z,8.70
2018-04-24T03:00:26.592Z,6.00
2018-04-24T03:01:26.542Z,7.00
2018-04-24T03:02:26.504Z,7.70
2018-04-24T03:03:26.459Z,7.50
2018-04-24T03:04:26.427Z,6.80
2018-04-24T03:05:26.440Z,6.20
2018-04-24T03:06:26.346Z,6.60
2018-04-24T03:07:26.309Z,6.00
2018-04-24T03:08:26.264Z,8.50
2018-04-24T03:09:26.226Z,9.90
2018-04-24T03:10:26.206Z,7.70
2018-04-24T03:11:26.136Z,5.90
2018-04-24T03:12:26.100Z,7.30
2018-04-24T03:13:26.054Z,7.10
2018-04-24T03:14:26.025Z,6.50
2018-04-24T03:15:26.002Z,6.10
2018-04-24T03:16:25.945Z,8.10
2018-04-24T03:17:25.903Z,6.90
2018-04-24T03:18:25.850Z,7.00
2018-04-24T03:19:25.816Z,7.60
2018-04-24T03:20:25.804Z,8.70
2018-04-24T03:21:25.735Z,6.20
2018-04-24T03:22:25.702Z,8.90
2018-04-24T03:23:25.647Z,7.40
2018-04-24T03:24:25.618Z,7.20
2018-04-24T03:25:25.604Z,5.50
2018-04-24T03:26:25.537Z,7.40
2018-04-24T03:27:25.489Z,7.30
2018-04-24T03:28:25.452Z,8.40
2018-04-24T03:29:25.410Z,6.70
2018-04-24T03:30:25.388Z,6.90
2018-04-24T03:31:25.337Z,6.30
2018-04-24T03:32:25.290Z,6.90
2018-04-24T03:33:25.249Z,6.30
2018-04-24T03:34:25.213Z,7.80
2018-04-24T03:35:25.196Z,6.20
2018-04-24T03:36:25.128Z,7.00
2018-04-24T03:37:25.094Z,7.40
2018-04-24T03:38:25.049Z,6.80
2018-04-24T03:39:25.014Z,6.80
2018-04-24T03:40:24.958Z,7.10
2018-04-24T03:41:24.946Z,6.40
2018-04-24T03:42:24.886Z,7.40
2018-04-24T03:43:24.845Z,7.40
2018-04-24T03:44:24.800Z,6.50
2018-04-24T03:45:24.757Z,7.00
2018-04-24T03:46:24.755Z,6.90
2018-04-24T03:47:24.680Z,7.10
2018-04-24T03:48:24.644Z,8.10
2018-04-24T03:49:24.602Z,7.20
2018-04-24T03:50:24.551Z,8.90
2018-04-24T03:51:24.551Z,7.60
2018-04-24T03:52:24.471Z,6.70
2018-04-24T03:53:24.438Z,7.70
2018-04-24T03:54:24.401Z,5.70
2018-04-24T03:55:24.355Z,7.80
2018-04-24T03:56:24.317Z,8.00
2018-04-24T03:57:24.297Z,8.50
2018-04-24T03:58:24.240Z,7.50
2018-04-24T03:59:24.189Z,7.80
2018-04-24T04:00:24.155Z,7.50
2018-04-24T04:01:24.112Z,8.40
2018-04-24T04:02:24.091Z,8.10
2018-04-24T04:03:24.036Z,7.90
2018-04-24T04:04:24.001Z,9.40
2018-04-24T04:05:23.945Z,9.50
2018-04-24T04:06:23.909Z,8.60
2018-04-24T04:07:23.887Z,9.10
2018-04-24T04:08:23.836Z,8.40
2018-04-24T04:09:23.793Z,7.00
2018-04-24T04:10:23.751Z,7.70
2018-04-24T04:11:23.706Z,8.90
2018-04-24T04:12:23.690Z,10.00
2018-04-24T04:13:23.624Z,6.90
2018-04-24T04:14:23.586Z,7.30
2018-04-24T04:15:23.550Z,6.80
2018-04-24T04:16:23.505Z,8.70
2018-04-24T04:17:23.489Z,8.10
2018-04-24T04:18:23.433Z,8.10
2018-04-24T04:19:23.379Z,9.30
2018-04-24T04:20:23.338Z,8.80
2018-04-24T04:21:23.306Z,8.40
2018-04-24T04:22:23.261Z,8.80
2018-04-24T04:23:23.258Z,8.30
2018-04-24T04:24:23.177Z,8.80
2018-04-24T04:25:23.138Z,7.60
2018-04-24T04:26:23.097Z,7.80
2018-04-24T04:27:23.059Z,8.70
2018-04-24T04:28:23.047Z,8.30
2018-04-24T04:29:22.976Z,8.90
2018-04-24T04:30:22.941Z,7.20
2018-04-24T04:31:22.898Z,10.40
2018-04-24T04:32:22.851Z,7.90
2018-04-24T04:33:22.812Z,8.50
2018-04-24T04:34:22.796Z,7.30
2018-04-24T04:35:22.738Z,8.70
2018-04-24T04:36:22.689Z,8.60
2018-04-24T04:37:22.651Z,9.20
2018-04-24T04:38:22.622Z,7.30
2018-04-24T04:39:22.589Z,6.80
2018-04-24T04:40:22.530Z,9.50
2018-04-24T04:41:22.504Z,7.70
2018-04-24T04:42:22.442Z,8.10
2018-04-24T04:43:22.413Z,7.80
2018-04-24T04:44:22.392Z,9.30
2018-04-24T04:45:22.334Z,10.10
2018-04-24T04:46:22.281Z,8.30
2018-04-24T04:47:22.259Z,7.70
2018-04-24T04:48:22.227Z,8.20
2018-04-24T04:49:22.194Z,6.60
2018-04-24T04:50:22.129Z,9.10
2018-04-24T04:51:22.080Z,8.50
2018-04-24T04:52:22.047Z,6.60
2018-04-24T04:53:22.012Z,7.40
2018-04-24T04:54:21.963Z,8.60
2018-04-24T04:55:21.945Z,6.40
2018-04-24T04:56:21.873Z,8.40
2018-04-24T04:57:21.838Z,6.60
2018-04-24T04:58:21.811Z,6.70
2018-04-24T04:59:21.761Z,6.70
2018-04-24T05:00:21.748Z,6.30
2018-04-24T05:01:21.678Z,7.30
2018-04-24T05:02:21.641Z,6.20
2018-04-24T05:03:21.596Z,6.90
2018-04-24T05:04:21.560Z,7.80
2018-04-24T05:05:21.611Z,7.40
2018-04-24T05:06:21.479Z,8.10
2018-04-24T05:07:21.443Z,5.70
2018-04-24T05:08:21.401Z,7.90
2018-04-24T05:09:21.358Z,7.50
2018-04-24T05:10:21.349Z,7.00
2018-04-24T05:11:21.280Z,7.00
2018-04-24T05:12:21.241Z,6.20
2018-04-24T05:13:21.206Z,8.20
2018-04-24T05:14:21.160Z,5.40
2018-04-24T05:15:21.117Z,8.00
2018-04-24T05:16:21.094Z,8.20
2018-04-24T05:17:21.035Z,5.60
2018-04-24T05:18:20.998Z,7.10
2018-04-24T05:19:20.965Z,6.80
2018-04-24T05:20:20.936Z,7.60
2018-04-24T05:21:20.873Z,7.70
2018-04-24T05:22:20.843Z,7.00
2018-04-24T05:23:20.798Z,8.90
2018-04-24T05:24:20.756Z,5.90
2018-04-24T05:25:20.752Z,5.70
2018-04-24T05:26:20.681Z,6.80
2018-04-24T05:27:20.643Z,4.90
2018-04-24T05:28:20.605Z,5.60
2018-04-24T05:29:20.558Z,4.90
2018-04-24T05:30:20.523Z,7.90
2018-04-24T05:31:20.502Z,7.10
2018-04-24T05:32:20.434Z,5.70
2018-04-24T05:33:20.410Z,6.60
2018-04-24T05:34:20.367Z,5.60
2018-04-24T05:35:20.326Z,6.80
2018-04-24T05:36:20.311Z,7.60
2018-04-24T05:37:20.251Z,7.00
2018-04-24T05:38:20.213Z,5.90
2018-04-24T05:39:20.161Z,5.40
2018-04-24T05:40:20.122Z,6.80
2018-04-24T05:41:20.084Z,6.40
2018-04-24T05:42:20.063Z,5.70
2018-04-24T05:43:20.007Z,5.80
2018-04-24T05:44:19.962Z,4.90
2018-04-24T05:45:19.992Z,5.80
2018-04-24T05:46:19.889Z,7.40
2018-04-24T05:47:19.874Z,6.50
2018-04-24T05:48:19.809Z,5.40
2018-04-24T05:49:19.778Z,5.60
2018-04-24T05:50:19.731Z,5.50
2018-04-24T05:51:19.690Z,5.30
2018-04-24T05:52:19.743Z,5.00
2018-04-24T05:53:19.615Z,5.10
2018-04-24T05:54:19.563Z,5.70
2018-04-24T05:55:19.542Z,4.40
2018-04-24T05:56:19.485Z,5.40
2018-04-24T05:57:19.483Z,6.40
2018-04-24T05:58:19.408Z,4.90
2018-04-24T05:59:19.375Z,5.90
2018-04-24T06:00:19.343Z,4.90
2018-04-24T06:01:19.293Z,5.20
2018-04-24T06:02:19.279Z,5.60
2018-04-24T06:03:19.215Z,6.20
2018-04-24T06:04:19.174Z,7.20
2018-04-24T06:05:19.135Z,6.20
2018-04-24T06:06:19.093Z,4.80
2018-04-24T06:07:19.063Z,6.70
2018-04-24T06:08:19.097Z,5.30
2018-04-24T06:09:18.978Z,6.50
2018-04-24T06:10:18.946Z,4.70
2018-04-24T06:11:18.903Z,5.90
2018-04-24T06:12:18.864Z,6.50
2018-04-24T06:13:18.841Z,7.00
2018-04-24T06:14:18.773Z,5.90
2018-04-24T06:15:18.765Z,4.70
2018-04-24T06:16:18.703Z,5.00
2018-04-24T06:17:18.672Z,6.50
2018-04-24T06:18:18.662Z,5.20
2018-04-24T06:19:18.579Z,5.90
2018-04-24T06:20:18.546Z,7.00
2018-04-24T06:21:18.501Z,4.20
2018-04-24T06:22:18.476Z,5.20
2018-04-24T06:23:18.452Z,5.20
2018-04-24T06:24:18.396Z,4.90
2018-04-24T06:25:18.362Z,4.90
2018-04-24T06:26:18.331Z,8.30
2018-04-24T06:27:18.285Z,4.20
2018-04-24T06:28:18.262Z,5.20
2018-04-24T06:29:18.207Z,5.20
2018-04-24T06:30:18.161Z,7.30
2018-04-24T06:31:18.114Z,5.40
2018-04-24T06:32:18.088Z,6.10
2018-04-24T06:33:18.044Z,5.40
2018-04-24T06:34:18.021Z,5.30
2018-04-24T06:35:17.972Z,6.10
2018-04-24T06:36:17.933Z,4.00
2018-04-24T06:37:17.890Z,4.50
2018-04-24T06:38:17.840Z,4.70
2018-04-24T06:39:17.852Z,6.20
2018-04-24T06:40:17.777Z,5.40
2018-04-24T06:41:17.735Z,6.90
2018-04-24T06:42:17.760Z,6.80
2018-04-24T06:43:17.705Z,5.70
2018-04-24T06:44:17.643Z,6.60
2018-04-24T06:45:17.594Z,5.60
2018-04-24T06:46:17.544Z,5.30
2018-04-24T06:47:17.502Z,5.50
2018-04-24T06:48:17.476Z,6.20
2018-04-24T06:49:17.448Z,4.60
2018-04-24T06:50:17.410Z,5.50
2018-04-24T06:51:17.352Z,5.70
2018-04-24T06:52:17.321Z,5.10
2018-04-24T06:53:17.270Z,4.90
2018-04-24T06:54:17.236Z,6.00
2018-04-24T06:55:17.220Z,5.20
2018-04-24T06:56:17.165Z,6.70
2018-04-24T06:57:17.133Z,5.70
2018-04-24T06:58:17.086Z,5.30
2018-04-24T06:59:17.072Z,7.80
2018-04-24T07:00:17.037Z,6.10
2018-04-24T07:01:16.974Z,6.20
2018-04-24T07:02:16.928Z,8.60
2018-04-24T07:03:16.912Z,5.90
2018-04-24T07:04:16.868Z,4.90
2018-04-24T07:05:16.890Z,6.70
2018-04-24T07:06:16.818Z,6.00
2018-04-24T07:07:16.759Z,6.20
2018-04-24T07:08:16.728Z,5.60
2018-04-24T07:09:16.734Z,6.30
2018-04-24T07:10:16.664Z,6.40
2018-04-24T07:11:16.607Z,6.10
2018-04-24T07:12:16.567Z,5.60
2018-04-24T07:13:16.525Z,5.30
2018-04-24T07:14:16.503Z,6.10
2018-04-24T07:15:16.497Z,7.20
2018-04-24T07:16:16.415Z,6.40
2018-04-24T07:17:16.379Z,5.50
2018-04-24T07:18:16.549Z,7.00
2018-04-24T07:19:16.361Z,6.70
2018-04-24T07:20:16.269Z,6.10
2018-04-24T07:21:16.259Z,6.60
2018-04-24T07:22:16.248Z,6.30
2018-04-24T07:23:16.156Z,7.90
2018-04-24T07:24:16.106Z,6.50
2018-04-24T07:25:16.077Z,6.50
2018-04-24T07:26:16.065Z,5.30
2018-04-24T07:27:15.996Z,6.10
2018-04-24T07:28:16.037Z,6.70
2018-04-24T07:29:15.930Z,4.70
2018-04-24T07:30:15.885Z,6.90
2018-04-24T07:31:15.878Z,6.10
2018-04-24T07:32:15.806Z,8.00
2018-04-24T07:33:15.768Z,7.60
2018-04-24T07:34:15.737Z,5.50
2018-04-24T07:35:15.695Z,6.10
2018-04-24T07:36:15.679Z,6.30
2018-04-24T07:37:15.637Z,5.60
2018-04-24T07:38:15.588Z,7.20
2018-04-24T07:39:15.564Z,6.20
2018-04-24T07:40:15.507Z,6.70
2018-04-24T07:41:15.498Z,5.80
2018-04-24T07:42:15.430Z,6.90
2018-04-24T07:43:15.397Z,7.10
2018-04-24T07:44:15.356Z,5.90
2018-04-24T07:45:15.323Z,5.40
2018-04-24T07:46:15.286Z,6.40
2018-04-24T07:47:15.268Z,5.30
2018-04-24T07:48:15.220Z,6.30
2018-04-24T07:49:15.167Z,6.40
2018-04-24T07:50:15.122Z,6.80
2018-04-24T07:51:15.097Z,6.30
2018-04-24T07:52:15.077Z,7.10
2018-04-24T07:53:15.035Z,6.10
2018-04-24T07:54:14.983Z,8.40
2018-04-24T07:55:14.935Z,6.00
2018-04-24T07:56:14.896Z,5.80
2018-04-24T07:57:14.894Z,7.60
2018-04-24T07:58:14.832Z,7.40
2018-04-24T07:59:14.802Z,6.30
2018-04-24T08:00:14.786Z,5.20
2018-04-24T08:01:14.719Z,9.10
2018-04-24T08:02:14.694Z,6.80
2018-04-24T08:03:14.630Z,6.60
2018-04-24T08:04:14.605Z,7.20
2018-04-24T08:05:14.555Z,6.40
2018-04-24T08:06:14.523Z,5.60
2018-04-24T08:07:14.476Z,7.00
2018-04-24T08:08:14.477Z,7.70
2018-04-24T08:09:14.400Z,5.60
2018-04-24T08:10:14.369Z,5.00
2018-04-24T08:11:14.332Z,8.90
2018-04-24T08:12:14.291Z,7.40
2018-04-24T08:13:14.280Z,7.70
2018-04-24T08:14:14.216Z,8.10
2018-04-24T08:15:14.171Z,8.10
2018-04-24T08:16:14.144Z,7.10
2018-04-24T08:17:14.095Z,7.60
2018-04-24T08:18:14.092Z,8.10
2018-04-24T08:19:14.017Z,7.60
2018-04-24T08:20:13.992Z,6.50
2018-04-24T08:21:13.950Z,7.30
2018-04-24T08:22:13.927Z,7.60
2018-04-24T08:23:13.894Z,6.20
2018-04-24T08:24:13.829Z,9.60
2018-04-24T08:25:13.786Z,9.30
2018-04-24T08:26:13.768Z,7.70
2018-04-24T08:27:13.728Z,10.10
2018-04-24T08:28:13.711Z,7.50
2018-04-24T08:29:13.636Z,8.70
2018-04-24T08:30:13.607Z,8.20
2018-04-24T08:31:13.570Z,9.40
2018-04-24T08:32:13.523Z,5.90
2018-04-24T08:33:13.490Z,8.60
2018-04-24T08:34:13.472Z,7.90
2018-04-24T08:35:13.416Z,6.30
2018-04-24T08:36:13.365Z,9.10
2018-04-24T08:37:13.328Z,9.80
2018-04-24T08:38:13.326Z,7.50
2018-04-24T08:39:13.276Z,9.10
2018-04-24T08:40:13.231Z,8.40
2018-04-24T08:41:13.177Z,9.60
2018-04-24T08:42:13.142Z,6.50
2018-04-24T08:43:13.101Z,8.50
2018-04-24T08:44:13.102Z,7.10
2018-04-24T08:45:13.031Z,6.20
2018-04-24T08:46:12.988Z,8.40
2018-04-24T08:47:12.951Z,7.50
2018-04-24T08:48:12.905Z,7.20
2018-04-24T08:49:12.892Z,9.00
2018-04-24T08:50:12.829Z,10.60
2018-04-24T08:51:12.799Z,9.60
2018-04-24T08:52:12.760Z,9.90
2018-04-24T08:53:12.719Z,9.60
2018-04-24T08:54:12.700Z,8.60
2018-04-24T08:55:12.650Z,9.40
2018-04-24T08:56:12.632Z,10.00
2018-04-24T08:57:12.567Z,10.20
2018-04-24T08:58:12.526Z,11.20
2018-04-24T08:59:12.542Z,9.10
2018-04-24T09:00:13.494Z,10.60
2018-04-24T09:01:12.474Z,9.00
2018-04-24T09:02:12.368Z,10.10
2018-04-24T09:03:12.335Z,12.00
2018-04-24T09:04:12.305Z,9.30
2018-04-24T09:05:12.301Z,10.80
2018-04-24T09:06:12.216Z,10.50
2018-04-24T09:07:12.182Z,11.10
2018-04-24T09:08:12.136Z,9.80
2018-04-24T09:09:12.094Z,11.80
2018-04-24T09:10:12.107Z,10.60
2018-04-24T09:11:12.021Z,11.80
2018-04-24T09:12:11.983Z,10.80
2018-04-24T09:13:11.943Z,11.00
2018-04-24T09:14:11.951Z,11.70
2018-04-24T09:15:11.893Z,12.00
2018-04-24T09:16:11.820Z,12.40
2018-04-24T09:17:11.791Z,12.50
2018-04-24T09:18:11.746Z,9.60
2018-04-24T09:19:11.704Z,11.40
2018-04-24T09:20:11.694Z,13.60
2018-04-24T09:21:11.692Z,14.30
2018-04-24T09:22:11.591Z,13.00
2018-04-24T09:23:11.555Z,12.20
2018-04-24T09:24:13.146Z,12.60
2018-04-24T09:25:11.483Z,11.70
2018-04-24T09:26:11.463Z,11.80
2018-04-24T09:27:11.523Z,10.80
2018-04-24T09:28:11.381Z,10.70
2018-04-24T09:29:11.317Z,12.30
2018-04-24T09:30:11.279Z,12.60
2018-04-24T09:31:11.257Z,11.10
2018-04-24T09:32:11.217Z,14.10
2018-04-24T09:33:11.159Z,12.30
2018-04-24T09:34:11.144Z,13.30
2018-04-24T09:35:11.078Z,12.00
2018-04-24T09:36:11.066Z,13.90
2018-04-24T09:37:11.008Z,14.80
2018-04-24T09:38:10.956Z,12.70
2018-04-24T09:39:10.929Z,11.00
2018-04-24T09:40:10.885Z,11.40
2018-04-24T09:41:10.874Z,11.70
2018-04-24T09:42:10.804Z,13.80
2018-04-24T09:43:10.768Z,11.60
2018-04-24T09:44:10.732Z,12.20
2018-04-24T09:45:10.692Z,12.80
2018-04-24T09:46:10.685Z,12.70
2018-04-24T09:47:10.631Z,12.40
2018-04-24T09:48:10.577Z,12.70
2018-04-24T09:49:10.532Z,13.10
2018-04-24T09:50:10.505Z,10.30
2018-04-24T09:51:10.451Z,11.10
2018-04-24T09:52:10.442Z,10.90
2018-04-24T09:53:10.385Z,11.00
2018-04-24T09:54:10.332Z,11.10
2018-04-24T09:55:10.308Z,13.20
2018-04-24T09:56:10.262Z,13.60
2018-04-24T09:57:10.257Z,11.50
2018-04-24T09:58:10.190Z,12.90
2018-04-24T09:59:10.141Z,11.70
2018-04-24T10:00:10.138Z,11.70
2018-04-24T10:01:10.067Z,10.30
2018-04-24T10:02:10.033Z,11.50
2018-04-24T10:03:10.014Z,12.50
2018-04-24T10:04:09.957Z,12.80
2018-04-24T10:05:09.953Z,9.60
2018-04-24T10:06:09.878Z,11.40
2018-04-24T10:07:09.843Z,10.50
2018-04-24T10:08:09.829Z,11.40
2018-04-24T10:09:09.756Z,12.00
2018-04-24T10:10:09.723Z,13.40
2018-04-24T10:11:09.683Z,11.10
2018-04-24T10:12:09.645Z,12.10
2018-04-24T10:13:09.634Z,9.10
2018-04-24T10:14:09.573Z,11.80
2018-04-24T10:15:09.539Z,13.80
2018-04-24T10:16:09.489Z,14.10
2018-04-24T10:17:09.454Z,8.80
2018-04-24T10:18:09.449Z,9.30
2018-04-24T10:19:09.381Z,10.30
2018-04-24T10:20:09.342Z,10.80
2018-04-24T10:21:09.297Z,11.40
2018-04-24T10:22:09.266Z,10.50
2018-04-24T10:23:09.263Z,10.80
2018-04-24T10:24:09.195Z,10.30
2018-04-24T10:25:09.161Z,13.50
2018-04-24T10:26:09.124Z,11.20
2018-04-24T10:27:09.075Z,12.20
2018-04-24T10:28:09.032Z,10.90
2018-04-24T10:29:09.019Z,10.00
2018-04-24T10:30:08.974Z,10.00
2018-04-24T10:31:08.920Z,11.10
2018-04-24T10:32:08.954Z,9.80
2018-04-24T10:33:08.846Z,10.80
2018-04-24T10:34:08.839Z,10.30
2018-04-24T10:35:08.773Z,11.30
2018-04-24T10:36:08.739Z,12.30
2018-04-24T10:37:08.701Z,10.60
2018-04-24T10:38:08.659Z,10.00
2018-04-24T10:39:08.651Z,11.30
2018-04-24T10:40:08.588Z,9.90
2018-04-24T10:41:08.543Z,11.90
2018-04-24T10:42:08.509Z,10.70
2018-04-24T10:43:08.466Z,12.00
2018-04-24T10:44:08.457Z,10.70
2018-04-24T10:45:08.400Z,10.90
2018-04-24T10:46:08.354Z,12.00
2018-04-24T10:47:08.322Z,10.30
2018-04-24T10:48:08.299Z,11.20
2018-04-24T10:49:08.249Z,10.00
2018-04-24T10:50:08.234Z,10.20
2018-04-24T10:51:08.175Z,10.50
2018-04-24T10:52:08.145Z,12.00
2018-04-24T10:53:08.096Z,11.70
2018-04-24T10:54:08.062Z,11.80
2018-04-24T10:55:08.060Z,11.80
2018-04-24T10:56:07.983Z,11.00
2018-04-24T10:57:08.002Z,11.70
2018-04-24T10:58:07.914Z,11.30
2018-04-24T10:59:07.876Z,13.10
2018-04-24T11:00:07.859Z,11.70
2018-04-24T11:01:07.796Z,11.10
2018-04-24T11:02:07.764Z,12.10
2018-04-24T11:03:07.724Z,11.50
2018-04-24T11:04:07.685Z,10.70
2018-04-24T11:05:07.670Z,12.00
2018-04-24T11:06:07.601Z,12.60
2018-04-24T11:07:07.566Z,13.70
2018-04-24T11:08:07.529Z,12.20
2018-04-24T11:09:07.490Z,12.00
2018-04-24T11:10:07.487Z,13.40
2018-04-24T11:11:07.428Z,11.10
2018-04-24T11:12:07.409Z,11.40
2018-04-24T11:13:07.334Z,11.60
2018-04-24T11:14:07.310Z,12.50
2018-04-24T11:15:07.265Z,12.20
2018-04-24T11:16:07.251Z,12.00
2018-04-24T11:17:07.233Z,11.90
2018-04-24T11:18:07.144Z,13.60
2018-04-24T11:19:07.121Z,11.40
2018-04-24T11:20:07.077Z,12.40
2018-04-24T11:21:07.062Z,12.90
2018-04-24T11:22:07.018Z,11.80
2018-04-24T11:23:06.958Z,12.20
2018-04-24T11:24:06.922Z,12.00
2018-04-24T11:25:06.885Z,10.80
2018-04-24T11:26:06.879Z,10.50
2018-04-24T11:27:06.810Z,11.40
2018-04-24T11:28:06.779Z,13.50
2018-04-24T11:29:06.737Z,9.00
2018-04-24T11:30:06.707Z,10.20
2018-04-24T11:31:06.705Z,9.90
2018-04-24T11:32:06.699Z,9.60
2018-04-24T11:33:06.638Z,10.10
2018-04-24T11:34:07.003Z,8.90
2018-04-24T11:35:06.741Z,9.70
2018-04-24T11:36:06.524Z,8.60
2018-04-24T11:37:06.438Z,8.10
2018-04-24T11:38:06.472Z,10.20
2018-04-24T11:39:06.370Z,9.20
2018-04-24T11:40:06.336Z,9.80
2018-04-24T11:41:06.296Z,9.10
2018-04-24T11:42:06.281Z,9.20
2018-04-24T11:43:06.234Z,9.20
2018-04-24T11:44:06.615Z,10.70
2018-04-24T11:45:06.159Z,10.10
2018-04-24T11:46:06.150Z,11.30
2018-04-24T11:47:06.063Z,9.60
2018-04-24T11:48:06.034Z,9.00
2018-04-24T11:49:05.997Z,9.80
2018-04-24T11:50:05.972Z,10.30
2018-04-24T11:51:05.920Z,10.10
2018-04-24T11:52:05.895Z,12.80
2018-04-24T11:53:05.836Z,10.90
2018-04-24T11:54:05.812Z,9.40
2018-04-24T11:55:05.772Z,8.80
2018-04-24T11:56:05.726Z,10.50
2018-04-24T11:57:05.733Z,9.90
2018-04-24T11:58:05.652Z,12.30
2018-04-24T11:59:05.617Z,8.60
2018-04-24T12:00:05.594Z,9.50
2018-04-24T12:01:05.551Z,9.40
2018-04-24T12:02:05.509Z,9.10
2018-04-24T12:03:05.490Z,10.20
2018-04-24T12:04:05.429Z,11.70
2018-04-24T12:05:05.388Z,8.90
2018-04-24T12:06:05.362Z,9.90
2018-04-24T12:07:05.320Z,9.30
2018-04-24T12:08:05.303Z,9.80
2018-04-24T12:09:05.245Z,8.00
2018-04-24T12:10:05.275Z,12.60
2018-04-24T12:11:05.177Z,10.00
2018-04-24T12:12:05.155Z,11.80
2018-04-24T12:13:05.121Z,11.70
2018-04-24T12:14:05.059Z,10.10
2018-04-24T12:15:05.022Z,8.20
2018-04-24T12:16:04.984Z,10.00
2018-04-24T12:17:04.944Z,8.70
2018-04-24T12:18:04.942Z,10.00
2018-04-24T12:19:04.881Z,10.40
2018-04-24T12:20:04.841Z,10.40
2018-04-24T12:21:04.802Z,10.30
2018-04-24T12:22:04.804Z,10.60
2018-04-24T12:23:04.755Z,8.40
2018-04-24T12:24:04.683Z,11.40
2018-04-24T12:25:04.655Z,10.20
2018-04-24T12:26:04.613Z,9.00
2018-04-24T12:27:04.568Z,8.90
2018-04-24T12:28:04.546Z,8.10
2018-04-24T12:29:04.538Z,9.90
2018-04-24T12:30:04.468Z,9.80
2018-04-24T12:31:04.427Z,8.70
2018-04-24T12:32:04.414Z,8.40
2018-04-24T12:33:04.359Z,8.70
2018-04-24T12:34:04.476Z,8.40
2018-04-24T12:35:04.288Z,8.90
2018-04-24T12:36:04.302Z,9.20
2018-04-24T12:37:04.213Z,9.40
2018-04-24T12:38:04.194Z,9.90
2018-04-24T12:39:04.181Z,8.30
2018-04-24T12:40:04.100Z,8.00
2018-04-24T12:41:04.069Z,9.80
2018-04-24T12:42:04.150Z,8.50
2018-04-24T12:43:04.025Z,8.40
2018-04-24T12:44:03.991Z,9.30
2018-04-24T12:45:03.933Z,9.00
2018-04-24T12:46:03.890Z,8.20
2018-04-24T12:47:03.850Z,10.20
2018-04-24T12:48:03.813Z,8.80
2018-04-24T12:49:03.807Z,8.60
2018-04-24T12:50:03.750Z,10.50
2018-04-24T12:51:03.721Z,9.40
2018-04-24T12:52:03.684Z,8.90
2018-04-24T12:53:03.810Z,9.40
2018-04-24T12:54:03.624Z,9.50
2018-04-24T12:55:03.610Z,9.30
2018-04-24T12:56:03.542Z,8.70
2018-04-24T12:57:03.499Z,9.20
2018-04-24T12:58:03.482Z,9.90
2018-04-24T12:59:03.491Z,9.90
2018-04-24T13:00:03.416Z,8.60
2018-04-24T13:01:03.365Z,9.40
2018-04-24T13:02:03.318Z,9.50
2018-04-24T13:03:03.289Z,9.30
2018-04-24T13:04:03.351Z,8.90
2018-04-24T13:05:03.248Z,9.70
2018-04-24T13:06:03.195Z,11.00
2018-04-24T13:07:03.155Z,8.90
2018-04-24T13:08:03.125Z,9.20
2018-04-24T13:09:03.084Z,9.60
2018-04-24T13:10:03.077Z,9.60
2018-04-24T13:11:03.007Z,12.00
2018-04-24T13:12:02.985Z,9.10